sensor_id;sensor_type;location;lat;lon;timestamp;P1;durP1;ratioP1;P2;durP2;ratioP2
13347;SDS011;6743;49.934;9.138;2023-05-10T00:00:10;0.82;;;0.82;;
13347;SDS011;6743;49.934;9.138;2023-05-10T00:02:37;0.98;;;0.98;;
13347;SDS011;6743;49.934;9.138;2023-05-10T00:05:04;0.90;;;0.90;;
13347;SDS011;6743;49.934;9.138;2023-05-10T00:07:30;0.88;;;0.88;;
13347;SDS011;6743;49.934;9.138;2023-05-10T00:09:57;0.55;;;0.43;;
13347;SDS011;6743;49.934;9.138;2023-05-10T00:12:23;0.37;;;0.37;;
13347;SDS011;6743;49.934;9.138;2023-05-10T00:14:49;0.30;;;0.30;;
13347;SDS011;6743;49.934;9.138;2023-05-10T00:17:15;0.60;;;0.60;;
13347;SDS011;6743;49.934;9.138;2023-05-10T00:19:41;0.30;;;0.30;;
13347;SDS011;6743;49.934;9.138;2023-05-10T00:22:07;0.10;;;0.10;;
13347;SDS011;6743;49.934;9.138;2023-05-10T00:24:33;0.20;;;0.20;;
13347;SDS011;6743;49.934;9.138;2023-05-10T00:27:00;0.25;;;0.25;;
13347;SDS011;6743;49.934;9.138;2023-05-10T00:29:26;0.25;;;0.25;;
13347;SDS011;6743;49.934;9.138;2023-05-10T00:31:53;0.30;;;0.30;;
13347;SDS011;6743;49.934;9.138;2023-05-10T00:34:19;0.20;;;0.20;;
13347;SDS011;6743;49.934;9.138;2023-05-10T00:36:45;0.50;;;0.20;;
13347;SDS011;6743;49.934;9.138;2023-05-10T00:39:11;0.10;;;0.10;;
13347;SDS011;6743;49.934;9.138;2023-05-10T00:41:37;0.15;;;0.15;;
13347;SDS011;6743;49.934;9.138;2023-05-10T00:44:04;0.30;;;0.30;;
13347;SDS011;6743;49.934;9.138;2023-05-10T00:46:30;0.10;;;0.10;;
13347;SDS011;6743;49.934;9.138;2023-05-10T00:48:57;0.20;;;0.20;;
13347;SDS011;6743;49.934;9.138;2023-05-10T00:51:23;0.20;;;0.20;;
13347;SDS011;6743;49.934;9.138;2023-05-10T00:53:50;0.10;;;0.10;;
13347;SDS011;6743;49.934;9.138;2023-05-10T00:56:17;0.13;;;0.13;;
13347;SDS011;6743;49.934;9.138;2023-05-10T00:58:43;0.30;;;0.30;;
13347;SDS011;6743;49.934;9.138;2023-05-10T01:01:10;0.30;;;0.30;;
13347;SDS011;6743;49.934;9.138;2023-05-10T01:03:36;0.55;;;0.25;;
13347;SDS011;6743;49.934;9.138;2023-05-10T01:06:02;0.20;;;0.20;;
13347;SDS011;6743;49.934;9.138;2023-05-10T01:08:29;0.10;;;0.10;;
13347;SDS011;6743;49.934;9.138;2023-05-10T01:10:55;0.20;;;0.20;;
13347;SDS011;6743;49.934;9.138;2023-05-10T01:13:26;0.30;;;0.30;;
13347;SDS011;6743;49.934;9.138;2023-05-10T01:15:58;0.20;;;0.20;;
13347;SDS011;6743;49.934;9.138;2023-05-10T01:18:27;0.20;;;0.20;;
13347;SDS011;6743;49.934;9.138;2023-05-10T01:20:57;0.40;;;0.40;;
13347;SDS011;6743;49.934;9.138;2023-05-10T01:23:42;0.20;;;0.20;;
13347;SDS011;6743;49.934;9.138;2023-05-10T01:26:29;0.32;;;0.30;;
13347;SDS011;6743;49.934;9.138;2023-05-10T01:29:14;0.20;;;0.20;;
13347;SDS011;6743;49.934;9.138;2023-05-10T01:32:11;0.30;;;0.30;;
13347;SDS011;6743;49.934;9.138;2023-05-10T01:34:42;0.20;;;0.20;;
13347;SDS011;6743;49.934;9.138;2023-05-10T01:37:16;0.40;;;0.40;;
13347;SDS011;6743;49.934;9.138;2023-05-10T01:39:47;0.20;;;0.20;;
13347;SDS011;6743;49.934;9.138;2023-05-10T01:42:21;0.10;;;0.10;;
13347;SDS011;6743;49.934;9.138;2023-05-10T01:44:53;0.10;;;0.10;;
13347;SDS011;6743;49.934;9.138;2023-05-10T01:47:27;0.10;;;0.10;;
13347;SDS011;6743;49.934;9.138;2023-05-10T01:50:01;0.30;;;0.30;;
13347;SDS011;6743;49.934;9.138;2023-05-10T01:52:30;0.30;;;0.30;;
13347;SDS011;6743;49.934;9.138;2023-05-10T01:54:59;0.40;;;0.40;;
13347;SDS011;6743;49.934;9.138;2023-05-10T01:57:29;0.20;;;0.20;;
13347;SDS011;6743;49.934;9.138;2023-05-10T01:59:59;0.50;;;0.40;;
13347;SDS011;6743;49.934;9.138;2023-05-10T02:02:27;0.40;;;0.40;;
13347;SDS011;6743;49.934;9.138;2023-05-10T02:04:55;0.40;;;0.40;;
13347;SDS011;6743;49.934;9.138;2023-05-10T02:07:23;0.20;;;0.20;;
13347;SDS011;6743;49.934;9.138;2023-05-10T02:09:50;0.40;;;0.40;;
13347;SDS011;6743;49.934;9.138;2023-05-10T02:12:16;0.50;;;0.50;;
13347;SDS011;6743;49.934;9.138;2023-05-10T02:14:44;0.40;;;0.40;;
13347;SDS011;6743;49.934;9.138;2023-05-10T02:17:12;0.20;;;0.20;;
13347;SDS011;6743;49.934;9.138;2023-05-10T02:19:40;0.40;;;0.40;;
13347;SDS011;6743;49.934;9.138;2023-05-10T02:22:07;0.20;;;0.20;;
13347;SDS011;6743;49.934;9.138;2023-05-10T02:24:34;0.40;;;0.40;;
13347;SDS011;6743;49.934;9.138;2023-05-10T02:27:02;0.60;;;0.60;;
13347;SDS011;6743;49.934;9.138;2023-05-10T02:29:30;0.62;;;0.62;;
13347;SDS011;6743;49.934;9.138;2023-05-10T02:32:01;0.30;;;0.30;;
13347;SDS011;6743;49.934;9.138;2023-05-10T02:34:28;0.50;;;0.50;;
13347;SDS011;6743;49.934;9.138;2023-05-10T02:36:56;0.40;;;0.40;;
13347;SDS011;6743;49.934;9.138;2023-05-10T02:39:23;0.47;;;0.47;;
13347;SDS011;6743;49.934;9.138;2023-05-10T02:41:53;0.52;;;0.52;;
13347;SDS011;6743;49.934;9.138;2023-05-10T02:44:20;0.40;;;0.40;;
13347;SDS011;6743;49.934;9.138;2023-05-10T02:46:48;0.45;;;0.45;;
13347;SDS011;6743;49.934;9.138;2023-05-10T02:49:15;0.40;;;0.40;;
13347;SDS011;6743;49.934;9.138;2023-05-10T02:51:42;0.50;;;0.50;;
13347;SDS011;6743;49.934;9.138;2023-05-10T02:54:17;0.20;;;0.20;;
13347;SDS011;6743;49.934;9.138;2023-05-10T02:56:47;0.40;;;0.40;;
13347;SDS011;6743;49.934;9.138;2023-05-10T02:59:16;0.40;;;0.40;;
13347;SDS011;6743;49.934;9.138;2023-05-10T03:01:42;0.40;;;0.40;;
13347;SDS011;6743;49.934;9.138;2023-05-10T03:04:08;0.40;;;0.40;;
13347;SDS011;6743;49.934;9.138;2023-05-10T03:06:34;0.40;;;0.40;;
13347;SDS011;6743;49.934;9.138;2023-05-10T03:09:01;0.45;;;0.32;;
13347;SDS011;6743;49.934;9.138;2023-05-10T03:11:31;0.37;;;0.37;;
13347;SDS011;6743;49.934;9.138;2023-05-10T03:14:08;0.47;;;0.47;;
13347;SDS011;6743;49.934;9.138;2023-05-10T03:16:41;0.62;;;0.50;;
13347;SDS011;6743;49.934;9.138;2023-05-10T03:19:12;0.50;;;0.50;;
13347;SDS011;6743;49.934;9.138;2023-05-10T03:21:43;0.40;;;0.40;;
13347;SDS011;6743;49.934;9.138;2023-05-10T03:24:15;0.70;;;0.70;;
13347;SDS011;6743;49.934;9.138;2023-05-10T03:26:43;0.57;;;0.57;;
13347;SDS011;6743;49.934;9.138;2023-05-10T03:29:09;0.30;;;0.30;;
13347;SDS011;6743;49.934;9.138;2023-05-10T03:31:37;0.60;;;0.60;;
13347;SDS011;6743;49.934;9.138;2023-05-10T03:34:03;0.50;;;0.50;;
13347;SDS011;6743;49.934;9.138;2023-05-10T03:36:32;0.37;;;0.37;;
13347;SDS011;6743;49.934;9.138;2023-05-10T03:38:58;0.50;;;0.50;;
13347;SDS011;6743;49.934;9.138;2023-05-10T03:41:24;0.20;;;0.20;;
13347;SDS011;6743;49.934;9.138;2023-05-10T03:43:51;0.57;;;0.57;;
13347;SDS011;6743;49.934;9.138;2023-05-10T03:46:17;1.00;;;0.90;;
13347;SDS011;6743;49.934;9.138;2023-05-10T03:48:43;0.47;;;0.47;;
13347;SDS011;6743;49.934;9.138;2023-05-10T03:51:09;0.20;;;0.20;;
13347;SDS011;6743;49.934;9.138;2023-05-10T03:53:35;0.40;;;0.40;;
13347;SDS011;6743;49.934;9.138;2023-05-10T03:56:01;0.30;;;0.30;;
13347;SDS011;6743;49.934;9.138;2023-05-10T03:58:27;0.35;;;0.35;;
13347;SDS011;6743;49.934;9.138;2023-05-10T04:00:54;0.50;;;0.50;;
13347;SDS011;6743;49.934;9.138;2023-05-10T04:03:20;0.40;;;0.40;;
13347;SDS011;6743;49.934;9.138;2023-05-10T04:05:46;0.30;;;0.30;;
13347;SDS011;6743;49.934;9.138;2023-05-10T04:08:12;0.40;;;0.40;;
13347;SDS011;6743;49.934;9.138;2023-05-10T04:10:39;0.50;;;0.50;;
13347;SDS011;6743;49.934;9.138;2023-05-10T04:13:05;0.37;;;0.37;;
13347;SDS011;6743;49.934;9.138;2023-05-10T04:15:31;0.40;;;0.40;;
13347;SDS011;6743;49.934;9.138;2023-05-10T04:17:58;0.40;;;0.40;;
13347;SDS011;6743;49.934;9.138;2023-05-10T04:20:24;0.52;;;0.52;;
13347;SDS011;6743;49.934;9.138;2023-05-10T04:22:50;0.32;;;0.32;;
13347;SDS011;6743;49.934;9.138;2023-05-10T04:25:16;0.40;;;0.40;;
13347;SDS011;6743;49.934;9.138;2023-05-10T04:27:42;0.40;;;0.40;;
13347;SDS011;6743;49.934;9.138;2023-05-10T04:30:09;0.40;;;0.40;;
13347;SDS011;6743;49.934;9.138;2023-05-10T04:32:35;0.45;;;0.45;;
13347;SDS011;6743;49.934;9.138;2023-05-10T04:35:02;0.30;;;0.30;;
13347;SDS011;6743;49.934;9.138;2023-05-10T04:37:29;0.40;;;0.40;;
13347;SDS011;6743;49.934;9.138;2023-05-10T04:39:55;0.40;;;0.40;;
13347;SDS011;6743;49.934;9.138;2023-05-10T04:42:21;0.40;;;0.40;;
13347;SDS011;6743;49.934;9.138;2023-05-10T04:44:47;0.40;;;0.40;;
13347;SDS011;6743;49.934;9.138;2023-05-10T04:47:13;0.40;;;0.40;;
13347;SDS011;6743;49.934;9.138;2023-05-10T04:49:39;0.50;;;0.50;;
13347;SDS011;6743;49.934;9.138;2023-05-10T04:52:07;0.30;;;0.30;;
13347;SDS011;6743;49.934;9.138;2023-05-10T04:54:35;1.10;;;0.88;;
13347;SDS011;6743;49.934;9.138;2023-05-10T04:57:01;0.47;;;0.47;;
13347;SDS011;6743;49.934;9.138;2023-05-10T04:59:27;0.57;;;0.57;;
13347;SDS011;6743;49.934;9.138;2023-05-10T05:01:53;0.40;;;0.40;;
13347;SDS011;6743;49.934;9.138;2023-05-10T05:04:29;0.40;;;0.40;;
13347;SDS011;6743;49.934;9.138;2023-05-10T05:06:55;0.50;;;0.50;;
13347;SDS011;6743;49.934;9.138;2023-05-10T05:09:22;0.35;;;0.35;;
13347;SDS011;6743;49.934;9.138;2023-05-10T05:11:48;0.50;;;0.50;;
13347;SDS011;6743;49.934;9.138;2023-05-10T05:14:14;0.70;;;0.70;;
13347;SDS011;6743;49.934;9.138;2023-05-10T05:16:40;0.45;;;0.45;;
13347;SDS011;6743;49.934;9.138;2023-05-10T05:19:06;0.68;;;0.68;;
13347;SDS011;6743;49.934;9.138;2023-05-10T05:21:32;0.70;;;0.70;;
13347;SDS011;6743;49.934;9.138;2023-05-10T05:23:58;0.55;;;0.55;;
13347;SDS011;6743;49.934;9.138;2023-05-10T05:26:25;0.80;;;0.80;;
13347;SDS011;6743;49.934;9.138;2023-05-10T05:28:52;0.55;;;0.55;;
13347;SDS011;6743;49.934;9.138;2023-05-10T05:31:19;0.70;;;0.70;;
13347;SDS011;6743;49.934;9.138;2023-05-10T05:33:45;0.50;;;0.50;;
13347;SDS011;6743;49.934;9.138;2023-05-10T05:36:12;0.68;;;0.68;;
13347;SDS011;6743;49.934;9.138;2023-05-10T05:38:38;0.70;;;0.70;;
13347;SDS011;6743;49.934;9.138;2023-05-10T05:41:04;0.60;;;0.60;;
13347;SDS011;6743;49.934;9.138;2023-05-10T05:43:31;0.62;;;0.62;;
13347;SDS011;6743;49.934;9.138;2023-05-10T05:45:57;1.37;;;1.02;;
13347;SDS011;6743;49.934;9.138;2023-05-10T05:48:23;0.52;;;0.52;;
13347;SDS011;6743;49.934;9.138;2023-05-10T05:50:49;0.80;;;0.80;;
13347;SDS011;6743;49.934;9.138;2023-05-10T05:53:16;0.60;;;0.60;;
13347;SDS011;6743;49.934;9.138;2023-05-10T05:55:50;0.65;;;0.65;;
13347;SDS011;6743;49.934;9.138;2023-05-10T05:58:17;0.70;;;0.70;;
13347;SDS011;6743;49.934;9.138;2023-05-10T06:00:44;1.00;;;1.00;;
13347;SDS011;6743;49.934;9.138;2023-05-10T06:03:10;0.68;;;0.68;;
13347;SDS011;6743;49.934;9.138;2023-05-10T06:05:36;0.80;;;0.80;;
13347;SDS011;6743;49.934;9.138;2023-05-10T06:08:02;0.65;;;0.65;;
13347;SDS011;6743;49.934;9.138;2023-05-10T06:10:29;0.93;;;0.90;;
13347;SDS011;6743;49.934;9.138;2023-05-10T06:12:55;0.80;;;0.80;;
13347;SDS011;6743;49.934;9.138;2023-05-10T06:15:21;0.80;;;0.80;;
13347;SDS011;6743;49.934;9.138;2023-05-10T06:17:48;0.82;;;0.82;;
13347;SDS011;6743;49.934;9.138;2023-05-10T06:20:14;1.00;;;1.00;;
13347;SDS011;6743;49.934;9.138;2023-05-10T06:22:41;0.73;;;0.73;;
13347;SDS011;6743;49.934;9.138;2023-05-10T06:25:07;0.70;;;0.70;;
13347;SDS011;6743;49.934;9.138;2023-05-10T06:27:34;0.90;;;0.90;;
13347;SDS011;6743;49.934;9.138;2023-05-10T06:30:00;0.90;;;0.90;;
13347;SDS011;6743;49.934;9.138;2023-05-10T06:32:27;3.12;;;1.05;;
13347;SDS011;6743;49.934;9.138;2023-05-10T06:34:54;4.00;;;2.42;;
13347;SDS011;6743;49.934;9.138;2023-05-10T06:37:20;1.10;;;1.10;;
13347;SDS011;6743;49.934;9.138;2023-05-10T06:39:46;0.80;;;0.80;;
13347;SDS011;6743;49.934;9.138;2023-05-10T06:42:12;1.02;;;0.90;;
13347;SDS011;6743;49.934;9.138;2023-05-10T06:44:41;1.15;;;0.98;;
13347;SDS011;6743;49.934;9.138;2023-05-10T06:47:08;1.15;;;1.15;;
13347;SDS011;6743;49.934;9.138;2023-05-10T06:49:35;0.80;;;0.80;;
13347;SDS011;6743;49.934;9.138;2023-05-10T06:52:02;0.90;;;0.90;;
13347;SDS011;6743;49.934;9.138;2023-05-10T06:54:29;0.80;;;0.80;;
13347;SDS011;6743;49.934;9.138;2023-05-10T06:56:55;0.80;;;0.80;;
13347;SDS011;6743;49.934;9.138;2023-05-10T06:59:21;1.70;;;0.75;;
13347;SDS011;6743;49.934;9.138;2023-05-10T07:01:47;0.90;;;0.90;;
13347;SDS011;6743;49.934;9.138;2023-05-10T07:04:15;0.70;;;0.70;;
13347;SDS011;6743;49.934;9.138;2023-05-10T07:06:51;1.33;;;1.02;;
13347;SDS011;6743;49.934;9.138;2023-05-10T07:09:18;0.77;;;0.77;;
13347;SDS011;6743;49.934;9.138;2023-05-10T07:11:51;0.75;;;0.75;;
13347;SDS011;6743;49.934;9.138;2023-05-10T07:14:17;0.52;;;0.52;;
13347;SDS011;6743;49.934;9.138;2023-05-10T07:16:49;0.90;;;0.90;;
13347;SDS011;6743;49.934;9.138;2023-05-10T07:19:15;0.88;;;0.88;;
13347;SDS011;6743;49.934;9.138;2023-05-10T07:21:41;1.33;;;0.95;;
13347;SDS011;6743;49.934;9.138;2023-05-10T07:24:08;0.90;;;0.90;;
13347;SDS011;6743;49.934;9.138;2023-05-10T07:26:35;1.05;;;1.05;;
13347;SDS011;6743;49.934;9.138;2023-05-10T07:29:03;0.62;;;0.62;;
13347;SDS011;6743;49.934;9.138;2023-05-10T07:31:31;1.12;;;1.02;;
13347;SDS011;6743;49.934;9.138;2023-05-10T07:33:57;0.70;;;0.70;;
13347;SDS011;6743;49.934;9.138;2023-05-10T07:36:26;0.93;;;0.93;;
13347;SDS011;6743;49.934;9.138;2023-05-10T07:38:52;0.50;;;0.50;;
13347;SDS011;6743;49.934;9.138;2023-05-10T07:41:21;1.95;;;1.00;;
13347;SDS011;6743;49.934;9.138;2023-05-10T07:43:48;0.70;;;0.70;;
13347;SDS011;6743;49.934;9.138;2023-05-10T07:46:15;0.98;;;0.98;;
13347;SDS011;6743;49.934;9.138;2023-05-10T07:48:41;1.08;;;0.98;;
13347;SDS011;6743;49.934;9.138;2023-05-10T07:51:07;1.10;;;1.10;;
13347;SDS011;6743;49.934;9.138;2023-05-10T07:53:34;1.00;;;0.98;;
13347;SDS011;6743;49.934;9.138;2023-05-10T07:56:19;0.55;;;0.55;;
13347;SDS011;6743;49.934;9.138;2023-05-10T07:58:50;1.12;;;0.88;;
13347;SDS011;6743;49.934;9.138;2023-05-10T08:01:16;3.80;;;1.10;;
13347;SDS011;6743;49.934;9.138;2023-05-10T08:03:46;1.17;;;1.10;;
13347;SDS011;6743;49.934;9.138;2023-05-10T08:06:12;1.05;;;1.05;;
13347;SDS011;6743;49.934;9.138;2023-05-10T08:08:38;1.00;;;1.00;;
13347;SDS011;6743;49.934;9.138;2023-05-10T08:11:05;1.23;;;1.05;;
13347;SDS011;6743;49.934;9.138;2023-05-10T08:13:32;2.37;;;1.10;;
13347;SDS011;6743;49.934;9.138;2023-05-10T08:16:04;1.30;;;1.20;;
13347;SDS011;6743;49.934;9.138;2023-05-10T08:18:31;0.90;;;0.90;;
13347;SDS011;6743;49.934;9.138;2023-05-10T08:20:56;1.20;;;1.15;;
13347;SDS011;6743;49.934;9.138;2023-05-10T08:23:23;0.85;;;0.85;;
13347;SDS011;6743;49.934;9.138;2023-05-10T08:25:49;1.10;;;1.02;;
13347;SDS011;6743;49.934;9.138;2023-05-10T08:28:15;1.30;;;1.30;;
13347;SDS011;6743;49.934;9.138;2023-05-10T08:30:43;1.05;;;1.05;;
13347;SDS011;6743;49.934;9.138;2023-05-10T08:33:10;1.10;;;1.10;;
13347;SDS011;6743;49.934;9.138;2023-05-10T08:35:36;0.90;;;0.90;;
13347;SDS011;6743;49.934;9.138;2023-05-10T08:38:04;1.40;;;1.30;;
13347;SDS011;6743;49.934;9.138;2023-05-10T08:40:30;1.20;;;1.08;;
13347;SDS011;6743;49.934;9.138;2023-05-10T08:42:57;1.00;;;1.00;;
13347;SDS011;6743;49.934;9.138;2023-05-10T08:45:27;0.90;;;0.90;;
13347;SDS011;6743;49.934;9.138;2023-05-10T08:47:57;0.88;;;0.88;;
13347;SDS011;6743;49.934;9.138;2023-05-10T08:50:25;1.23;;;1.10;;
13347;SDS011;6743;49.934;9.138;2023-05-10T08:52:51;1.40;;;1.10;;
13347;SDS011;6743;49.934;9.138;2023-05-10T08:55:20;1.00;;;1.00;;
13347;SDS011;6743;49.934;9.138;2023-05-10T08:57:48;1.40;;;1.30;;
13347;SDS011;6743;49.934;9.138;2023-05-10T09:00:15;1.10;;;1.10;;
13347;SDS011;6743;49.934;9.138;2023-05-10T09:02:42;1.27;;;1.17;;
13347;SDS011;6743;49.934;9.138;2023-05-10T09:05:10;1.15;;;1.15;;
13347;SDS011;6743;49.934;9.138;2023-05-10T09:07:38;0.80;;;0.80;;
13347;SDS011;6743;49.934;9.138;2023-05-10T09:10:04;0.90;;;0.90;;
13347;SDS011;6743;49.934;9.138;2023-05-10T09:12:31;1.12;;;1.12;;
13347;SDS011;6743;49.934;9.138;2023-05-10T09:14:57;1.55;;;0.95;;
13347;SDS011;6743;49.934;9.138;2023-05-10T09:17:25;1.05;;;1.05;;
13347;SDS011;6743;49.934;9.138;2023-05-10T09:19:56;0.93;;;0.93;;
13347;SDS011;6743;49.934;9.138;2023-05-10T09:22:24;0.85;;;0.85;;
13347;SDS011;6743;49.934;9.138;2023-05-10T09:25:03;0.85;;;0.85;;
13347;SDS011;6743;49.934;9.138;2023-05-10T09:27:30;0.80;;;0.80;;
13347;SDS011;6743;49.934;9.138;2023-05-10T09:29:56;1.00;;;1.00;;
13347;SDS011;6743;49.934;9.138;2023-05-10T09:32:22;0.85;;;0.85;;
13347;SDS011;6743;49.934;9.138;2023-05-10T09:35:06;0.77;;;0.77;;
13347;SDS011;6743;49.934;9.138;2023-05-10T09:37:32;1.00;;;0.82;;
13347;SDS011;6743;49.934;9.138;2023-05-10T09:39:58;1.00;;;1.00;;
13347;SDS011;6743;49.934;9.138;2023-05-10T09:42:25;0.75;;;0.75;;
13347;SDS011;6743;49.934;9.138;2023-05-10T09:44:51;0.90;;;0.90;;
13347;SDS011;6743;49.934;9.138;2023-05-10T09:47:17;0.68;;;0.68;;
13347;SDS011;6743;49.934;9.138;2023-05-10T09:49:43;0.65;;;0.65;;
13347;SDS011;6743;49.934;9.138;2023-05-10T09:52:10;0.70;;;0.70;;
13347;SDS011;6743;49.934;9.138;2023-05-10T09:54:36;0.77;;;0.77;;
13347;SDS011;6743;49.934;9.138;2023-05-10T09:57:02;0.80;;;0.80;;
13347;SDS011;6743;49.934;9.138;2023-05-10T09:59:29;0.75;;;0.75;;
13347;SDS011;6743;49.934;9.138;2023-05-10T10:01:56;0.60;;;0.60;;
13347;SDS011;6743;49.934;9.138;2023-05-10T10:04:22;0.60;;;0.60;;
13347;SDS011;6743;49.934;9.138;2023-05-10T10:06:57;0.90;;;0.90;;
13347;SDS011;6743;49.934;9.138;2023-05-10T10:09:25;0.60;;;0.60;;
13347;SDS011;6743;49.934;9.138;2023-05-10T10:11:51;0.50;;;0.50;;
13347;SDS011;6743;49.934;9.138;2023-05-10T10:14:17;0.90;;;0.90;;
13347;SDS011;6743;49.934;9.138;2023-05-10T10:16:44;0.82;;;0.82;;
13347;SDS011;6743;49.934;9.138;2023-05-10T10:19:10;2.05;;;0.70;;
13347;SDS011;6743;49.934;9.138;2023-05-10T10:21:38;1.00;;;0.98;;
13347;SDS011;6743;49.934;9.138;2023-05-10T10:24:04;0.95;;;0.95;;
13347;SDS011;6743;49.934;9.138;2023-05-10T10:26:32;1.00;;;1.00;;
13347;SDS011;6743;49.934;9.138;2023-05-10T10:29:04;0.80;;;0.80;;
13347;SDS011;6743;49.934;9.138;2023-05-10T10:31:39;1.05;;;0.90;;
13347;SDS011;6743;49.934;9.138;2023-05-10T10:34:10;0.73;;;0.73;;
13347;SDS011;6743;49.934;9.138;2023-05-10T10:36:47;0.80;;;0.80;;
13347;SDS011;6743;49.934;9.138;2023-05-10T10:39:13;0.70;;;0.70;;
13347;SDS011;6743;49.934;9.138;2023-05-10T10:41:48;0.75;;;0.75;;
13347;SDS011;6743;49.934;9.138;2023-05-10T10:44:35;1.20;;;0.73;;
13347;SDS011;6743;49.934;9.138;2023-05-10T10:47:24;0.77;;;0.77;;
13347;SDS011;6743;49.934;9.138;2023-05-10T10:50:05;0.57;;;0.57;;
13347;SDS011;6743;49.934;9.138;2023-05-10T10:52:32;0.77;;;0.77;;
13347;SDS011;6743;49.934;9.138;2023-05-10T10:55:03;0.52;;;0.52;;
13347;SDS011;6743;49.934;9.138;2023-05-10T10:57:32;1.65;;;0.60;;
13347;SDS011;6743;49.934;9.138;2023-05-10T11:00:18;1.25;;;0.50;;
13347;SDS011;6743;49.934;9.138;2023-05-10T11:02:50;0.50;;;0.50;;
13347;SDS011;6743;49.934;9.138;2023-05-10T11:08:16;0.60;;;0.60;;
13347;SDS011;6743;49.934;9.138;2023-05-10T11:10:50;0.57;;;0.57;;
13347;SDS011;6743;49.934;9.138;2023-05-10T11:13:26;0.40;;;0.40;;
13347;SDS011;6743;49.934;9.138;2023-05-10T11:15:53;0.52;;;0.52;;
13347;SDS011;6743;49.934;9.138;2023-05-10T11:18:20;1.08;;;0.60;;
13347;SDS011;6743;49.934;9.138;2023-05-10T11:20:55;0.40;;;0.40;;
13347;SDS011;6743;49.934;9.138;2023-05-10T11:23:23;0.70;;;0.70;;
13347;SDS011;6743;49.934;9.138;2023-05-10T11:25:49;0.60;;;0.60;;
13347;SDS011;6743;49.934;9.138;2023-05-10T11:28:16;0.47;;;0.47;;
13347;SDS011;6743;49.934;9.138;2023-05-10T11:30:44;0.70;;;0.60;;
13347;SDS011;6743;49.934;9.138;2023-05-10T11:33:15;0.62;;;0.62;;
13347;SDS011;6743;49.934;9.138;2023-05-10T11:35:42;0.55;;;0.55;;
13347;SDS011;6743;49.934;9.138;2023-05-10T11:38:09;2.65;;;1.20;;
13347;SDS011;6743;49.934;9.138;2023-05-10T11:40:36;0.80;;;0.80;;
13347;SDS011;6743;49.934;9.138;2023-05-10T11:43:03;0.68;;;0.68;;
13347;SDS011;6743;49.934;9.138;2023-05-10T11:45:31;0.75;;;0.75;;
13347;SDS011;6743;49.934;9.138;2023-05-10T11:47:58;0.80;;;0.80;;
13347;SDS011;6743;49.934;9.138;2023-05-10T11:50:25;1.65;;;0.60;;
13347;SDS011;6743;49.934;9.138;2023-05-10T11:52:52;0.90;;;0.90;;
13347;SDS011;6743;49.934;9.138;2023-05-10T11:55:19;0.77;;;0.77;;
13347;SDS011;6743;49.934;9.138;2023-05-10T11:57:47;0.90;;;0.90;;
13347;SDS011;6743;49.934;9.138;2023-05-10T12:00:13;1.00;;;0.95;;
13347;SDS011;6743;49.934;9.138;2023-05-10T12:02:39;0.93;;;0.93;;
13347;SDS011;6743;49.934;9.138;2023-05-10T12:05:06;0.95;;;0.95;;
13347;SDS011;6743;49.934;9.138;2023-05-10T12:07:32;0.88;;;0.88;;
13347;SDS011;6743;49.934;9.138;2023-05-10T12:10:02;0.80;;;0.80;;
13347;SDS011;6743;49.934;9.138;2023-05-10T12:12:35;0.73;;;0.73;;
13347;SDS011;6743;49.934;9.138;2023-05-10T12:15:12;0.73;;;0.73;;
13347;SDS011;6743;49.934;9.138;2023-05-10T12:17:43;0.60;;;0.60;;
13347;SDS011;6743;49.934;9.138;2023-05-10T12:20:13;0.60;;;0.60;;
13347;SDS011;6743;49.934;9.138;2023-05-10T12:22:40;0.47;;;0.47;;
13347;SDS011;6743;49.934;9.138;2023-05-10T12:25:09;0.50;;;0.50;;
13347;SDS011;6743;49.934;9.138;2023-05-10T12:27:36;0.60;;;0.60;;
13347;SDS011;6743;49.934;9.138;2023-05-10T12:30:03;0.80;;;0.80;;
13347;SDS011;6743;49.934;9.138;2023-05-10T12:32:39;1.50;;;0.77;;
13347;SDS011;6743;49.934;9.138;2023-05-10T12:35:06;0.70;;;0.70;;
13347;SDS011;6743;49.934;9.138;2023-05-10T12:37:32;0.40;;;0.40;;
13347;SDS011;6743;49.934;9.138;2023-05-10T12:40:01;0.65;;;0.65;;
13347;SDS011;6743;49.934;9.138;2023-05-10T12:42:27;0.70;;;0.70;;
13347;SDS011;6743;49.934;9.138;2023-05-10T12:44:55;0.55;;;0.55;;
13347;SDS011;6743;49.934;9.138;2023-05-10T12:47:21;0.60;;;0.60;;
13347;SDS011;6743;49.934;9.138;2023-05-10T12:49:47;0.62;;;0.62;;
13347;SDS011;6743;49.934;9.138;2023-05-10T12:52:13;0.50;;;0.50;;
13347;SDS011;6743;49.934;9.138;2023-05-10T12:54:39;0.65;;;0.65;;
13347;SDS011;6743;49.934;9.138;2023-05-10T12:57:05;0.65;;;0.65;;
13347;SDS011;6743;49.934;9.138;2023-05-10T12:59:31;1.05;;;0.60;;
13347;SDS011;6743;49.934;9.138;2023-05-10T13:01:58;0.50;;;0.50;;
13347;SDS011;6743;49.934;9.138;2023-05-10T13:04:24;0.40;;;0.40;;
13347;SDS011;6743;49.934;9.138;2023-05-10T13:06:50;0.52;;;0.52;;
13347;SDS011;6743;49.934;9.138;2023-05-10T13:09:16;0.52;;;0.52;;
13347;SDS011;6743;49.934;9.138;2023-05-10T13:11:41;0.60;;;0.60;;
13347;SDS011;6743;49.934;9.138;2023-05-10T13:14:08;0.70;;;0.70;;
13347;SDS011;6743;49.934;9.138;2023-05-10T13:16:34;0.20;;;0.20;;
13347;SDS011;6743;49.934;9.138;2023-05-10T13:19:00;0.40;;;0.40;;
13347;SDS011;6743;49.934;9.138;2023-05-10T13:21:26;0.47;;;0.47;;
13347;SDS011;6743;49.934;9.138;2023-05-10T13:23:53;1.40;;;0.73;;
13347;SDS011;6743;49.934;9.138;2023-05-10T13:26:19;0.40;;;0.40;;
13347;SDS011;6743;49.934;9.138;2023-05-10T13:28:45;0.52;;;0.52;;
13347;SDS011;6743;49.934;9.138;2023-05-10T13:31:11;0.73;;;0.73;;
13347;SDS011;6743;49.934;9.138;2023-05-10T13:33:37;0.80;;;0.80;;
13347;SDS011;6743;49.934;9.138;2023-05-10T13:36:04;0.32;;;0.32;;
13347;SDS011;6743;49.934;9.138;2023-05-10T13:38:31;1.02;;;0.70;;
13347;SDS011;6743;49.934;9.138;2023-05-10T13:40:57;0.75;;;0.75;;
13347;SDS011;6743;49.934;9.138;2023-05-10T13:43:23;0.50;;;0.50;;
13347;SDS011;6743;49.934;9.138;2023-05-10T13:45:49;0.80;;;0.60;;
13347;SDS011;6743;49.934;9.138;2023-05-10T13:48:16;0.82;;;0.80;;
13347;SDS011;6743;49.934;9.138;2023-05-10T13:50:42;0.60;;;0.60;;
13347;SDS011;6743;49.934;9.138;2023-05-10T13:53:09;0.50;;;0.50;;
13347;SDS011;6743;49.934;9.138;2023-05-10T13:55:35;0.50;;;0.50;;
13347;SDS011;6743;49.934;9.138;2023-05-10T13:58:01;0.70;;;0.70;;
13347;SDS011;6743;49.934;9.138;2023-05-10T14:00:27;0.70;;;0.70;;
13347;SDS011;6743;49.934;9.138;2023-05-10T14:02:53;0.65;;;0.65;;
13347;SDS011;6743;49.934;9.138;2023-05-10T14:05:19;0.60;;;0.60;;
13347;SDS011;6743;49.934;9.138;2023-05-10T14:07:45;0.50;;;0.50;;
13347;SDS011;6743;49.934;9.138;2023-05-10T14:10:12;0.98;;;0.90;;
13347;SDS011;6743;49.934;9.138;2023-05-10T14:12:41;0.57;;;0.57;;
13347;SDS011;6743;49.934;9.138;2023-05-10T14:15:07;0.47;;;0.47;;
13347;SDS011;6743;49.934;9.138;2023-05-10T14:17:35;0.50;;;0.50;;
13347;SDS011;6743;49.934;9.138;2023-05-10T14:20:01;0.60;;;0.60;;
13347;SDS011;6743;49.934;9.138;2023-05-10T14:22:28;0.50;;;0.50;;
13347;SDS011;6743;49.934;9.138;2023-05-10T14:24:55;0.52;;;0.47;;
13347;SDS011;6743;49.934;9.138;2023-05-10T14:27:22;0.50;;;0.50;;
13347;SDS011;6743;49.934;9.138;2023-05-10T14:29:48;0.45;;;0.45;;
13347;SDS011;6743;49.934;9.138;2023-05-10T14:32:14;0.60;;;0.60;;
13347;SDS011;6743;49.934;9.138;2023-05-10T14:34:40;0.60;;;0.60;;
13347;SDS011;6743;49.934;9.138;2023-05-10T14:37:06;1.10;;;0.52;;
13347;SDS011;6743;49.934;9.138;2023-05-10T14:39:32;0.50;;;0.50;;
13347;SDS011;6743;49.934;9.138;2023-05-10T14:41:58;0.45;;;0.45;;
13347;SDS011;6743;49.934;9.138;2023-05-10T14:44:24;0.68;;;0.68;;
13347;SDS011;6743;49.934;9.138;2023-05-10T14:46:51;0.73;;;0.73;;
13347;SDS011;6743;49.934;9.138;2023-05-10T14:49:17;0.77;;;0.77;;
13347;SDS011;6743;49.934;9.138;2023-05-10T14:51:43;0.60;;;0.60;;
13347;SDS011;6743;49.934;9.138;2023-05-10T14:54:10;0.75;;;0.75;;
13347;SDS011;6743;49.934;9.138;2023-05-10T14:56:35;1.87;;;0.85;;
13347;SDS011;6743;49.934;9.138;2023-05-10T14:59:02;0.45;;;0.45;;
13347;SDS011;6743;49.934;9.138;2023-05-10T15:01:29;0.40;;;0.40;;
13347;SDS011;6743;49.934;9.138;2023-05-10T15:03:56;0.60;;;0.60;;
13347;SDS011;6743;49.934;9.138;2023-05-10T15:06:23;1.55;;;0.50;;